Wilson Lista — 8PRW — position and weather

sailwx.info

Track history (hours):
 
Tides and Currents Weather Stations Pressure Air Temp Water Temp Dewpoint Dewpoint Depression Visibility Wind Speed Wind Dir Waves Ship Positions

Wilson Lista

Last reported at 2018-Feb-25 07:51 UTC. Time now 2018-Feb-25 08:21 UTC.
Position N 63°59' E 011°06'.

Length 88 m; draft 3.6 m.

Type: Cargo ship. MMSI: 314188000.

Date/timePositionNaut miles runAvg speedWind from/ knotsBaromVisibWave heightAir tempDewpointWater temp
2018-Feb-25 07:51N 63°59' E 011°06'0 0.0
2018-Feb-25 07:27N 63°59' E 011°06'0 0.0
2018-Feb-25 06:57N 63°59' E 011°06'0 0.0
2018-Feb-25 06:26N 63°59' E 011°06'0 0.0
2018-Feb-25 05:50N 63°59' E 011°06'0 0.0
2018-Feb-25 05:26N 63°59' E 011°06'0 0.0
2018-Feb-25 04:50N 63°59' E 011°06'0 0.0
2018-Feb-25 04:07N 63°59' E 011°06'0 0.0
2018-Feb-25 03:52N 63°59' E 011°06'0 0.0
2018-Feb-25 02:37N 63°59' E 011°06'0 0.0
2018-Feb-25 02:19N 63°59' E 011°06'0 0.0
2018-Feb-25 01:48N 63°59' E 011°06'0 0.0
2018-Feb-25 01:27N 63°59' E 011°06'0 0.0
2018-Feb-24 18:15N 63°59' E 011°06'0 0.0
2018-Feb-24 17:51N 63°59' E 011°06'0 0.0
2018-Feb-24 17:21N 63°59' E 011°06'0 0.0
2018-Feb-24 17:00N 63°59' E 011°06'0 0.0
2018-Feb-24 16:26N 63°59' E 011°06'0 0.0
2018-Feb-24 15:59N 63°59' E 011°06'0 0.0
2018-Feb-24 15:29N 63°59' E 011°06'0 0.0
2018-Feb-24 14:56N 63°59' E 011°06'0 0.0
2018-Feb-24 14:25N 63°59' E 011°06'0 0.0
2018-Feb-24 13:55N 63°59' E 011°06'0 0.0
2018-Feb-24 13:28N 63°59' E 011°06'0 0.0
2018-Feb-24 12:58N 63°59' E 011°06'0 0.0
2018-Feb-24 12:28N 63°59' E 011°06'0 0.0
2018-Feb-24 11:57N 63°59' E 011°06'0 0.0
2018-Feb-24 11:27N 63°59' E 011°06'0 0.0
2018-Feb-24 10:57N 63°59' E 011°06'0 0.0
2018-Feb-24 10:18N 63°59' E 011°06'0 0.0
2018-Feb-24 10:00N 63°59' E 011°06'0 0.0
2018-Feb-24 09:29N 63°59' E 011°06'0 0.2
2018-Feb-24 08:59N 63°59' E 011°06'5 9.4
2018-Feb-24 08:29N 63°54' E 011°04'510.5
2018-Feb-24 07:59N 63°49' E 011°03'611.2
2018-Feb-24 07:30N 63°44' E 010°57'510.9
2018-Feb-24 07:00N 63°41' E 010°48'510.8
2018-Feb-24 06:30N 63°37' E 010°38'510.6
2018-Feb-24 06:00N 63°34' E 010°28'511.0
2018-Feb-24 05:30N 63°32' E 010°18'510.8
2018-Feb-24 05:00N 63°29' E 010°07'510.0
2018-Feb-24 04:30N 63°29' E 009°56'510.6
2018-Feb-24 03:59N 63°34' E 009°50'510.7
2018-Feb-24 03:30N 63°39' E 009°46'510.8
2018-Feb-24 02:59N 63°38' E 009°34'511.0
2018-Feb-24 02:30N 63°37' E 009°22'4 8.1
2018-Feb-24 02:00N 63°40' E 009°15'3 6.0
2018-Feb-24 01:30N 63°43' E 009°14'3 6.0
2018-Feb-24 01:00N 63°46' E 009°13'3 5.6
2018-Feb-24 00:30N 63°49' E 009°14'3 5.5
2018-Feb-23 23:59N 63°51' E 009°15'3 5.6
2018-Feb-23 23:30N 63°54' E 009°17'3 6.0
2018-Feb-23 23:00N 63°57' E 009°20'3 6.3
2018-Feb-23 22:30N 63°60' E 009°23'3 6.6
2018-Feb-23 22:00N 64°03' E 009°26'2 4.1
2018-Feb-23 21:30N 64°04' E 009°28'4 6.8
2018-Feb-23 20:59N 64°01' E 009°25'3 6.8
2018-Feb-23 20:30N 63°58' E 009°22'3 5.5
2018-Feb-23 19:59N 63°56' E 009°20'4 8.6
2018-Feb-23 19:30N 63°59' E 009°24'5 9.1
2018-Feb-23 18:59N 64°04' E 009°27'4 8.8
2018-Feb-23 18:30N 64°08' E 009°31'4 8.8
2018-Feb-23 18:00N 64°12' E 009°35'5 9.2
2018-Feb-23 17:30N 64°16' E 009°38'5 9.9
2018-Feb-23 17:00N 64°21' E 009°42'55 8.8
2018-Feb-23 10:47N 65°12' E 010°28'70 8.6
2018-Feb-23 02:42N 66°15' E 011°44'2 9.8
2018-Feb-23 02:30N 66°15' E 011°49'5 9.9
2018-Feb-23 02:00N 66°16' E 012°01'510.0
2018-Feb-23 01:30N 66°17' E 012°13'510.3
2018-Feb-23 01:00N 66°15' E 012°25'5 9.8
2018-Feb-23 00:30N 66°15' E 012°37'5 9.8
2018-Feb-23 00:00N 66°10' E 012°39'5 9.8
2018-Feb-22 23:30N 66°05' E 012°40'3 6.1
2018-Feb-22 23:00N 66°02' E 012°43'510.6
2018-Feb-22 22:30N 66°02' E 012°56'5 9.2
2018-Feb-22 21:59N 65°58' E 012°55'511.5
2018-Feb-22 21:30N 65°55' E 013°06'4 8.3
2018-Feb-22 20:59N 65°51' E 013°11'0 0.0
2018-Feb-22 20:26N 65°51' E 013°11'0 0.0
2018-Feb-22 19:56N 65°51' E 013°11'0 0.0
2018-Feb-22 19:26N 65°51' E 013°11'0 0.0
2018-Feb-22 18:55N 65°51' E 013°11'0 0.0
2018-Feb-22 18:13N 65°51' E 013°11'0 0.0
2018-Feb-22 17:49N 65°51' E 013°11'0 0.0
2018-Feb-22 17:25N 65°51' E 013°11'0 0.0
2018-Feb-22 17:00N 65°51' E 013°11'0 0.0
2018-Feb-22 16:30N 65°51' E 013°11'0 0.0
2018-Feb-22 16:00N 65°51' E 013°11'0 0.1
2018-Feb-22 15:30N 65°51' E 013°11'0 0.0
2018-Feb-22 14:56N 65°51' E 013°11'0 0.0
2018-Feb-22 14:29N 65°51' E 013°11'0 0.0
2018-Feb-22 13:59N 65°51' E 013°11'0 0.0
2018-Feb-22 13:26N 65°51' E 013°11'0 0.0
2018-Feb-22 12:59N 65°51' E 013°11'0 0.0
2018-Feb-22 12:28N 65°51' E 013°11'0 0.0
2018-Feb-22 11:55N 65°51' E 013°11'0 0.0
2018-Feb-22 11:25N 65°51' E 013°11'0 0.0
2018-Feb-22 10:55N 65°51' E 013°11'0 0.0
2018-Feb-22 10:31N 65°51' E 013°11'0 0.0
2018-Feb-22 09:57N 65°51' E 013°11'0 0.0
2018-Feb-22 09:30N 65°51' E 013°11'0 0.0
2018-Feb-22 09:00N 65°51' E 013°11'0 0.0
2018-Feb-22 08:30N 65°51' E 013°11'0 0.0
2018-Feb-22 07:59N 65°51' E 013°11'0 0.0
2018-Feb-22 07:29N 65°51' E 013°11'0 0.0
2018-Feb-22 06:47N 65°51' E 013°11'0 0.0
2018-Feb-22 06:29N 65°51' E 013°11'0 0.0
2018-Feb-22 05:52N 65°51' E 013°11'0 0.0
2018-Feb-22 05:22N 65°51' E 013°11'0 0.0
2018-Feb-22 04:40N 65°51' E 013°11'0 0.0
2018-Feb-22 04:28N 65°51' E 013°11'0 0.0
2018-Feb-22 03:46N 65°51' E 013°11'0 0.0
2018-Feb-22 03:27N 65°51' E 013°11'0 0.0
2018-Feb-22 02:48N 65°51' E 013°11'0 0.0
2018-Feb-22 02:27N 65°51' E 013°11'0 0.0
2018-Feb-22 01:57N 65°51' E 013°11'0 0.0
2018-Feb-22 01:27N 65°51' E 013°11'0 0.0
2018-Feb-22 00:59N 65°51' E 013°11'0 0.0
2018-Feb-22 00:29N 65°51' E 013°11'0 0.0
2018-Feb-21 23:59N 65°51' E 013°11'0 0.0
2018-Feb-21 23:29N 65°51' E 013°11'0 0.0
2018-Feb-21 22:40N 65°51' E 013°11'0 0.0
2018-Feb-21 22:21N 65°51' E 013°11'0 0.0
2018-Feb-21 21:35N 65°51' E 013°11'0 0.0
2018-Feb-21 21:26N 65°51' E 013°11'0 0.1
2018-Feb-21 21:00N 65°51' E 013°11'3 5.1
2018-Feb-21 20:30N 65°53' E 013°09'5 9.5
2018-Feb-21 20:00N 65°56' E 012°60'4 7.4
2018-Feb-21 19:30N 65°59' E 012°54'3 6.8
2018-Feb-21 19:00N 66°03' E 012°52'5 9.4
2018-Feb-21 18:30N 66°02' E 012°40'4 7.0
2018-Feb-21 18:00N 66°05' E 012°42'510.2
2018-Feb-21 17:30N 66°09' E 012°49'5 9.6
2018-Feb-21 17:00N 66°13' E 012°57'2 4.1
2018-Feb-21 16:28N 66°13' E 013°02'0 0.0
2018-Feb-21 15:54N 66°13' E 013°02'0 0.0
2018-Feb-21 15:30N 66°13' E 013°02'0 0.0
2018-Feb-21 15:00N 66°13' E 013°02'0 0.0
2018-Feb-21 14:30N 66°13' E 013°02'0 0.0
2018-Feb-21 14:00N 66°13' E 013°02'0 0.0
2018-Feb-21 13:26N 66°13' E 013°02'0 0.0
2018-Feb-21 12:56N 66°13' E 013°02'0 0.0
2018-Feb-21 12:29N 66°13' E 013°02'0 0.0
2018-Feb-21 11:50N 66°13' E 013°02'0 0.0
2018-Feb-21 11:25N 66°13' E 013°02'0 0.0
2018-Feb-21 10:58N 66°13' E 013°02'0 0.0
2018-Feb-21 10:22N 66°13' E 013°02'0 0.0
2018-Feb-21 09:58N 66°13' E 013°02'0 0.0
2018-Feb-21 09:25N 66°13' E 013°02'0 0.0
2018-Feb-21 09:00N 66°13' E 013°02'0 0.0
2018-Feb-21 08:30N 66°13' E 013°02'0 0.0
2018-Feb-21 08:00N 66°13' E 013°02'0 0.0
2018-Feb-21 07:30N 66°13' E 013°02'0 0.0
2018-Feb-21 07:00N 66°13' E 013°02'0 0.0
2018-Feb-21 06:26N 66°13' E 013°02'0 0.1
2018-Feb-21 05:59N 66°13' E 013°02'0 0.0
2018-Feb-21 05:29N 66°13' E 013°02'0 0.0
2018-Feb-21 04:59N 66°13' E 013°02'0 0.0
2018-Feb-21 04:25N 66°13' E 013°02'0 0.1
2018-Feb-21 03:58N 66°13' E 013°02'0 0.0
2018-Feb-21 03:28N 66°13' E 013°02'0 0.0
2018-Feb-21 02:58N 66°13' E 013°02'0 0.0
2018-Feb-21 02:28N 66°13' E 013°02'0 0.0
2018-Feb-21 02:00N 66°13' E 013°02'0 0.0
2018-Feb-21 01:30N 66°13' E 013°02'0 0.0
2018-Feb-21 01:00N 66°13' E 013°02'0 0.0
2018-Feb-21 00:24N 66°13' E 013°02'0 0.0
2018-Feb-20 23:59N 66°13' E 013°02'0 0.0
2018-Feb-20 23:29N 66°13' E 013°02'0 0.0
2018-Feb-20 22:59N 66°13' E 013°02'0 0.0
2018-Feb-20 22:29N 66°13' E 013°02'0 0.0
2018-Feb-20 21:59N 66°13' E 013°02'0 0.0
2018-Feb-20 21:25N 66°13' E 013°02'0 0.0
2018-Feb-20 20:58N 66°13' E 013°02'0 0.1
2018-Feb-20 20:25N 66°13' E 013°02'0 0.0
2018-Feb-20 19:58N 66°13' E 013°02'0 0.0
2018-Feb-20 19:28N 66°13' E 013°02'0 0.0
2018-Feb-20 19:00N 66°13' E 013°02'0 0.1
2018-Feb-20 18:30N 66°13' E 013°02'0 0.0
2018-Feb-20 17:54N 66°13' E 013°02'0 0.1
2018-Feb-20 17:30N 66°13' E 013°02'0 0.1
2018-Feb-20 16:59N 66°13' E 013°02'0 0.0
2018-Feb-20 16:29N 66°13' E 013°02'0 0.1
2018-Feb-20 15:59N 66°13' E 013°02'0 0.1
2018-Feb-20 15:29N 66°13' E 013°02'0 0.1
2018-Feb-20 14:59N 66°13' E 013°02'0 0.0
2018-Feb-20 14:28N 66°13' E 013°02'0 0.0
2018-Feb-20 13:58N 66°13' E 013°02'0 0.0
2018-Feb-20 13:28N 66°13' E 013°02'0 0.0
2018-Feb-20 12:52N 66°13' E 013°02'0 0.0
2018-Feb-20 12:31N 66°13' E 013°02'0 0.0
2018-Feb-20 11:54N 66°13' E 013°02'0 0.0
2018-Feb-20 11:27N 66°13' E 013°02'0 0.0
2018-Feb-20 11:00N 66°13' E 013°02'1 2.2
2018-Feb-20 10:30N 66°13' E 012°59'5 9.2
2018-Feb-20 10:00N 66°12' E 012°49'5 9.3
2018-Feb-20 09:29N 66°14' E 012°38'4 9.1
2018-Feb-20 09:00N 66°15' E 012°27'5 9.6
2018-Feb-20 08:29N 66°17' E 012°16'510.0
2018-Feb-20 08:00N 66°16' E 012°04'5 9.7
2018-Feb-20 07:30N 66°15' E 011°52'242 9.9
2018-Feb-19 07:10N 63°02' E 006°12'2 9.9
2018-Feb-19 07:00N 63°01' E 006°10'510.1
2018-Feb-19 06:30N 62°57' E 006°03'510.2
2018-Feb-19 06:00N 62°53' E 005°57'510.1
2018-Feb-19 05:29N 62°48' E 005°51'5 9.8
2018-Feb-19 05:00N 62°45' E 005°45'510.1
2018-Feb-19 04:29N 62°40' E 005°39'510.0
2018-Feb-19 04:00N 62°36' E 005°33'5 9.8
2018-Feb-19 03:30N 62°32' E 005°26'510.1
2018-Feb-19 02:58N 62°28' E 005°19'5 9.8
2018-Feb-19 02:31N 62°24' E 005°14'5 9.8
2018-Feb-19 02:00N 62°20' E 005°08'510.4
2018-Feb-19 01:29N 62°16' E 005°01'510.1
2018-Feb-19 01:00N 62°12' E 004°55'510.6
2018-Feb-19 00:31N 62°07' E 004°50'611.4
2018-Feb-19 00:00N 62°02' E 004°47'510.7
2018-Feb-18 23:30N 61°57' E 004°42'510.0
2018-Feb-18 23:00N 61°52' E 004°37'510.4
2018-Feb-18 22:30N 61°48' E 004°32'510.1
2018-Feb-18 21:59N 61°43' E 004°28'5 9.3
2018-Feb-18 21:29N 61°38' E 004°25'5 9.7
2018-Feb-18 21:00N 61°34' E 004°22'510.2
2018-Feb-18 20:29N 61°29' E 004°20'493 9.5
2018-Feb-16 16:37N 53°36' W 000°03'2 7.8
2018-Feb-16 16:25N 53°37' W 000°06'3 7.0
2018-Feb-16 16:00N 53°38' W 000°10'1 1.8
2018-Feb-16 15:29N 53°38' W 000°11'0 0.4
2018-Feb-16 14:58N 53°38' W 000°12'0 0.0
2018-Feb-16 13:51N 53°38' W 000°12'0 0.0
2018-Feb-16 12:35N 53°38' W 000°12'0 0.0
2018-Feb-16 11:29N 53°38' W 000°12'0 0.0
2018-Feb-16 10:53N 53°38' W 000°12'0 0.0
2018-Feb-16 10:28N 53°38' W 000°12'0 0.0
2018-Feb-16 09:51N 53°38' W 000°12'0 0.0
2018-Feb-16 09:27N 53°38' W 000°12'0 0.0
2018-Feb-16 08:35N 53°38' W 000°12'0 0.0
2018-Feb-16 06:04N 53°38' W 000°12'0 0.0
2018-Feb-16 05:58N 53°38' W 000°12'0 0.0
2018-Feb-16 04:52N 53°38' W 000°12'0 0.0
2018-Feb-16 03:27N 53°38' W 000°12'0 0.0
2018-Feb-16 00:23N 53°38' W 000°12'0 0.6
2018-Feb-16 00:00N 53°38' W 000°11'0 0.4
2018-Feb-15 23:30N 53°38' W 000°11'0 0.5
2018-Feb-15 23:00N 53°38' W 000°11'2 3.3
2018-Feb-15 22:30N 53°38' W 000°08'4 8.1
2018-Feb-15 21:59N 53°36' W 000°02'4 6.0
2018-Feb-15 21:22N 53°34' E 000°03'1 0.5
2018-Feb-15 18:52N 53°33' E 000°05'0 0.0
2018-Feb-15 18:28N 53°33' E 000°05'0 0.0
2018-Feb-15 13:08N 53°33' E 000°05'0 0.0
2018-Feb-15 11:43N 53°33' E 000°05'0 0.0
2018-Feb-15 09:30N 53°33' E 000°05'0 0.0
2018-Feb-15 08:32N 53°33' E 000°05'0 0.0
2018-Feb-15 08:24N 53°33' E 000°05'0 0.1
2018-Feb-15 07:54N 53°33' E 000°05'  
Track history (hours):
 
Tides and Currents Weather Stations Pressure Air Temp Water Temp Dewpoint Dewpoint Depression Visibility Wind Speed Wind Dir Waves Ship Positions

Wilson Lista

Last reported at 2018-Feb-25 07:51 UTC. Time now 2018-Feb-25 08:21 UTC.
Position N 63°59' E 011°06'.

Length 88 m; draft 3.6 m.

Type: Cargo ship. MMSI: 314188000.

Date/timePositionNaut miles runAvg speedWind from/ knotsBaromVisibWave heightAir tempDewpointWater temp
2018-Feb-25 07:51N 63°59' E 011°06'0 0.0
2018-Feb-25 07:27N 63°59' E 011°06'0 0.0
2018-Feb-25 06:57N 63°59' E 011°06'0 0.0
2018-Feb-25 06:26N 63°59' E 011°06'0 0.0
2018-Feb-25 05:50N 63°59' E 011°06'0 0.0
2018-Feb-25 05:26N 63°59' E 011°06'0 0.0
2018-Feb-25 04:50N 63°59' E 011°06'0 0.0
2018-Feb-25 04:07N 63°59' E 011°06'0 0.0
2018-Feb-25 03:52N 63°59' E 011°06'0 0.0
2018-Feb-25 02:37N 63°59' E 011°06'0 0.0
2018-Feb-25 02:19N 63°59' E 011°06'0 0.0
2018-Feb-25 01:48N 63°59' E 011°06'0 0.0
2018-Feb-25 01:27N 63°59' E 011°06'0 0.0
2018-Feb-24 18:15N 63°59' E 011°06'0 0.0
2018-Feb-24 17:51N 63°59' E 011°06'0 0.0
2018-Feb-24 17:21N 63°59' E 011°06'0 0.0
2018-Feb-24 17:00N 63°59' E 011°06'0 0.0
2018-Feb-24 16:26N 63°59' E 011°06'0 0.0
2018-Feb-24 15:59N 63°59' E 011°06'0 0.0
2018-Feb-24 15:29N 63°59' E 011°06'0 0.0
2018-Feb-24 14:56N 63°59' E 011°06'0 0.0
2018-Feb-24 14:25N 63°59' E 011°06'0 0.0
2018-Feb-24 13:55N 63°59' E 011°06'0 0.0
2018-Feb-24 13:28N 63°59' E 011°06'0 0.0
2018-Feb-24 12:58N 63°59' E 011°06'0 0.0
2018-Feb-24 12:28N 63°59' E 011°06'0 0.0
2018-Feb-24 11:57N 63°59' E 011°06'0 0.0
2018-Feb-24 11:27N 63°59' E 011°06'0 0.0
2018-Feb-24 10:57N 63°59' E 011°06'0 0.0
2018-Feb-24 10:18N 63°59' E 011°06'0 0.0
2018-Feb-24 10:00N 63°59' E 011°06'0 0.0
2018-Feb-24 09:29N 63°59' E 011°06'0 0.2
2018-Feb-24 08:59N 63°59' E 011°06'5 9.4
2018-Feb-24 08:29N 63°54' E 011°04'510.5
2018-Feb-24 07:59N 63°49' E 011°03'611.2
2018-Feb-24 07:30N 63°44' E 010°57'510.9
2018-Feb-24 07:00N 63°41' E 010°48'510.8
2018-Feb-24 06:30N 63°37' E 010°38'510.6
2018-Feb-24 06:00N 63°34' E 010°28'511.0
2018-Feb-24 05:30N 63°32' E 010°18'510.8
2018-Feb-24 05:00N 63°29' E 010°07'510.0
2018-Feb-24 04:30N 63°29' E 009°56'510.6
2018-Feb-24 03:59N 63°34' E 009°50'510.7
2018-Feb-24 03:30N 63°39' E 009°46'510.8
2018-Feb-24 02:59N 63°38' E 009°34'511.0
2018-Feb-24 02:30N 63°37' E 009°22'4 8.1
2018-Feb-24 02:00N 63°40' E 009°15'3 6.0
2018-Feb-24 01:30N 63°43' E 009°14'3 6.0
2018-Feb-24 01:00N 63°46' E 009°13'3 5.6
2018-Feb-24 00:30N 63°49' E 009°14'3 5.5
2018-Feb-23 23:59N 63°51' E 009°15'3 5.6
2018-Feb-23 23:30N 63°54' E 009°17'3 6.0
2018-Feb-23 23:00N 63°57' E 009°20'3 6.3
2018-Feb-23 22:30N 63°60' E 009°23'3 6.6
2018-Feb-23 22:00N 64°03' E 009°26'2 4.1
2018-Feb-23 21:30N 64°04' E 009°28'4 6.8
2018-Feb-23 20:59N 64°01' E 009°25'3 6.8
2018-Feb-23 20:30N 63°58' E 009°22'3 5.5
2018-Feb-23 19:59N 63°56' E 009°20'4 8.6
2018-Feb-23 19:30N 63°59' E 009°24'5 9.1
2018-Feb-23 18:59N 64°04' E 009°27'4 8.8
2018-Feb-23 18:30N 64°08' E 009°31'4 8.8
2018-Feb-23 18:00N 64°12' E 009°35'5 9.2
2018-Feb-23 17:30N 64°16' E 009°38'5 9.9
2018-Feb-23 17:00N 64°21' E 009°42'55 8.8
2018-Feb-23 10:47N 65°12' E 010°28'70 8.6
2018-Feb-23 02:42N 66°15' E 011°44'2 9.8
2018-Feb-23 02:30N 66°15' E 011°49'5 9.9
2018-Feb-23 02:00N 66°16' E 012°01'510.0
2018-Feb-23 01:30N 66°17' E 012°13'510.3
2018-Feb-23 01:00N 66°15' E 012°25'5 9.8
2018-Feb-23 00:30N 66°15' E 012°37'5 9.8
2018-Feb-23 00:00N 66°10' E 012°39'5 9.8
2018-Feb-22 23:30N 66°05' E 012°40'3 6.1
2018-Feb-22 23:00N 66°02' E 012°43'510.6
2018-Feb-22 22:30N 66°02' E 012°56'5 9.2
2018-Feb-22 21:59N 65°58' E 012°55'511.5
2018-Feb-22 21:30N 65°55' E 013°06'4 8.3
2018-Feb-22 20:59N 65°51' E 013°11'0 0.0
2018-Feb-22 20:26N 65°51' E 013°11'0 0.0
2018-Feb-22 19:56N 65°51' E 013°11'0 0.0
2018-Feb-22 19:26N 65°51' E 013°11'0 0.0
2018-Feb-22 18:55N 65°51' E 013°11'0 0.0
2018-Feb-22 18:13N 65°51' E 013°11'0 0.0
2018-Feb-22 17:49N 65°51' E 013°11'0 0.0
2018-Feb-22 17:25N 65°51' E 013°11'0 0.0
2018-Feb-22 17:00N 65°51' E 013°11'0 0.0
2018-Feb-22 16:30N 65°51' E 013°11'0 0.0
2018-Feb-22 16:00N 65°51' E 013°11'0 0.1
2018-Feb-22 15:30N 65°51' E 013°11'0 0.0
2018-Feb-22 14:56N 65°51' E 013°11'0 0.0
2018-Feb-22 14:29N 65°51' E 013°11'0 0.0
2018-Feb-22 13:59N 65°51' E 013°11'0 0.0
2018-Feb-22 13:26N 65°51' E 013°11'0 0.0
2018-Feb-22 12:59N 65°51' E 013°11'0 0.0
2018-Feb-22 12:28N 65°51' E 013°11'0 0.0
2018-Feb-22 11:55N 65°51' E 013°11'0 0.0
2018-Feb-22 11:25N 65°51' E 013°11'0 0.0
2018-Feb-22 10:55N 65°51' E 013°11'0 0.0
2018-Feb-22 10:31N 65°51' E 013°11'0 0.0
2018-Feb-22 09:57N 65°51' E 013°11'0 0.0
2018-Feb-22 09:30N 65°51' E 013°11'0 0.0
2018-Feb-22 09:00N 65°51' E 013°11'0 0.0
2018-Feb-22 08:30N 65°51' E 013°11'0 0.0
2018-Feb-22 07:59N 65°51' E 013°11'0 0.0
2018-Feb-22 07:29N 65°51' E 013°11'0 0.0
2018-Feb-22 06:47N 65°51' E 013°11'0 0.0
2018-Feb-22 06:29N 65°51' E 013°11'0 0.0
2018-Feb-22 05:52N 65°51' E 013°11'0 0.0
2018-Feb-22 05:22N 65°51' E 013°11'0 0.0
2018-Feb-22 04:40N 65°51' E 013°11'0 0.0
2018-Feb-22 04:28N 65°51' E 013°11'0 0.0
2018-Feb-22 03:46N 65°51' E 013°11'0 0.0
2018-Feb-22 03:27N 65°51' E 013°11'0 0.0
2018-Feb-22 02:48N 65°51' E 013°11'0 0.0
2018-Feb-22 02:27N 65°51' E 013°11'0 0.0
2018-Feb-22 01:57N 65°51' E 013°11'0 0.0
2018-Feb-22 01:27N 65°51' E 013°11'0 0.0
2018-Feb-22 00:59N 65°51' E 013°11'0 0.0
2018-Feb-22 00:29N 65°51' E 013°11'0 0.0
2018-Feb-21 23:59N 65°51' E 013°11'0 0.0
2018-Feb-21 23:29N 65°51' E 013°11'0 0.0
2018-Feb-21 22:40N 65°51' E 013°11'0 0.0
2018-Feb-21 22:21N 65°51' E 013°11'0 0.0
2018-Feb-21 21:35N 65°51' E 013°11'0 0.0
2018-Feb-21 21:26N 65°51' E 013°11'0 0.1
2018-Feb-21 21:00N 65°51' E 013°11'3 5.1
2018-Feb-21 20:30N 65°53' E 013°09'5 9.5
2018-Feb-21 20:00N 65°56' E 012°60'4 7.4
2018-Feb-21 19:30N 65°59' E 012°54'3 6.8
2018-Feb-21 19:00N 66°03' E 012°52'5 9.4
2018-Feb-21 18:30N 66°02' E 012°40'4 7.0
2018-Feb-21 18:00N 66°05' E 012°42'510.2
2018-Feb-21 17:30N 66°09' E 012°49'5 9.6
2018-Feb-21 17:00N 66°13' E 012°57'2 4.1
2018-Feb-21 16:28N 66°13' E 013°02'0 0.0
2018-Feb-21 15:54N 66°13' E 013°02'0 0.0
2018-Feb-21 15:30N 66°13' E 013°02'0 0.0
2018-Feb-21 15:00N 66°13' E 013°02'0 0.0
2018-Feb-21 14:30N 66°13' E 013°02'0 0.0
2018-Feb-21 14:00N 66°13' E 013°02'0 0.0
2018-Feb-21 13:26N 66°13' E 013°02'0 0.0
2018-Feb-21 12:56N 66°13' E 013°02'0 0.0
2018-Feb-21 12:29N 66°13' E 013°02'0 0.0
2018-Feb-21 11:50N 66°13' E 013°02'0 0.0
2018-Feb-21 11:25N 66°13' E 013°02'0 0.0
2018-Feb-21 10:58N 66°13' E 013°02'0 0.0
2018-Feb-21 10:22N 66°13' E 013°02'0 0.0
2018-Feb-21 09:58N 66°13' E 013°02'0 0.0
2018-Feb-21 09:25N 66°13' E 013°02'0 0.0
2018-Feb-21 09:00N 66°13' E 013°02'0 0.0
2018-Feb-21 08:30N 66°13' E 013°02'0 0.0
2018-Feb-21 08:00N 66°13' E 013°02'0 0.0
2018-Feb-21 07:30N 66°13' E 013°02'0 0.0
2018-Feb-21 07:00N 66°13' E 013°02'0 0.0
2018-Feb-21 06:26N 66°13' E 013°02'0 0.1
2018-Feb-21 05:59N 66°13' E 013°02'0 0.0
2018-Feb-21 05:29N 66°13' E 013°02'0 0.0
2018-Feb-21 04:59N 66°13' E 013°02'0 0.0
2018-Feb-21 04:25N 66°13' E 013°02'0 0.1
2018-Feb-21 03:58N 66°13' E 013°02'0 0.0
2018-Feb-21 03:28N 66°13' E 013°02'0 0.0
2018-Feb-21 02:58N 66°13' E 013°02'0 0.0
2018-Feb-21 02:28N 66°13' E 013°02'0 0.0
2018-Feb-21 02:00N 66°13' E 013°02'0 0.0
2018-Feb-21 01:30N 66°13' E 013°02'0 0.0
2018-Feb-21 01:00N 66°13' E 013°02'0 0.0
2018-Feb-21 00:24N 66°13' E 013°02'0 0.0
2018-Feb-20 23:59N 66°13' E 013°02'0 0.0
2018-Feb-20 23:29N 66°13' E 013°02'0 0.0
2018-Feb-20 22:59N 66°13' E 013°02'0 0.0
2018-Feb-20 22:29N 66°13' E 013°02'0 0.0
2018-Feb-20 21:59N 66°13' E 013°02'0 0.0
2018-Feb-20 21:25N 66°13' E 013°02'0 0.0
2018-Feb-20 20:58N 66°13' E 013°02'0 0.1
2018-Feb-20 20:25N 66°13' E 013°02'0 0.0
2018-Feb-20 19:58N 66°13' E 013°02'0 0.0
2018-Feb-20 19:28N 66°13' E 013°02'0 0.0
2018-Feb-20 19:00N 66°13' E 013°02'0 0.1
2018-Feb-20 18:30N 66°13' E 013°02'0 0.0
2018-Feb-20 17:54N 66°13' E 013°02'0 0.1
2018-Feb-20 17:30N 66°13' E 013°02'0 0.1
2018-Feb-20 16:59N 66°13' E 013°02'0 0.0
2018-Feb-20 16:29N 66°13' E 013°02'0 0.1
2018-Feb-20 15:59N 66°13' E 013°02'0 0.1
2018-Feb-20 15:29N 66°13' E 013°02'0 0.1
2018-Feb-20 14:59N 66°13' E 013°02'0 0.0
2018-Feb-20 14:28N 66°13' E 013°02'0 0.0
2018-Feb-20 13:58N 66°13' E 013°02'0 0.0
2018-Feb-20 13:28N 66°13' E 013°02'0 0.0
2018-Feb-20 12:52N 66°13' E 013°02'0 0.0
2018-Feb-20 12:31N 66°13' E 013°02'0 0.0
2018-Feb-20 11:54N 66°13' E 013°02'0 0.0
2018-Feb-20 11:27N 66°13' E 013°02'0 0.0
2018-Feb-20 11:00N 66°13' E 013°02'1 2.2
2018-Feb-20 10:30N 66°13' E 012°59'5 9.2
2018-Feb-20 10:00N 66°12' E 012°49'5 9.3
2018-Feb-20 09:29N 66°14' E 012°38'4 9.1
2018-Feb-20 09:00N 66°15' E 012°27'5 9.6
2018-Feb-20 08:29N 66°17' E 012°16'510.0
2018-Feb-20 08:00N 66°16' E 012°04'5 9.7
2018-Feb-20 07:30N 66°15' E 011°52'242 9.9
2018-Feb-19 07:10N 63°02' E 006°12'2 9.9
2018-Feb-19 07:00N 63°01' E 006°10'510.1
2018-Feb-19 06:30N 62°57' E 006°03'510.2
2018-Feb-19 06:00N 62°53' E 005°57'510.1
2018-Feb-19 05:29N 62°48' E 005°51'5 9.8
2018-Feb-19 05:00N 62°45' E 005°45'510.1
2018-Feb-19 04:29N 62°40' E 005°39'510.0
2018-Feb-19 04:00N 62°36' E 005°33'5 9.8
2018-Feb-19 03:30N 62°32' E 005°26'510.1
2018-Feb-19 02:58N 62°28' E 005°19'5 9.8
2018-Feb-19 02:31N 62°24' E 005°14'5 9.8
2018-Feb-19 02:00N 62°20' E 005°08'510.4
2018-Feb-19 01:29N 62°16' E 005°01'510.1
2018-Feb-19 01:00N 62°12' E 004°55'510.6
2018-Feb-19 00:31N 62°07' E 004°50'611.4
2018-Feb-19 00:00N 62°02' E 004°47'510.7
2018-Feb-18 23:30N 61°57' E 004°42'510.0
2018-Feb-18 23:00N 61°52' E 004°37'510.4
2018-Feb-18 22:30N 61°48' E 004°32'510.1
2018-Feb-18 21:59N 61°43' E 004°28'5 9.3
2018-Feb-18 21:29N 61°38' E 004°25'5 9.7
2018-Feb-18 21:00N 61°34' E 004°22'510.2
2018-Feb-18 20:29N 61°29' E 004°20'493 9.5
2018-Feb-16 16:37N 53°36' W 000°03'2 7.8
2018-Feb-16 16:25N 53°37' W 000°06'3 7.0
2018-Feb-16 16:00N 53°38' W 000°10'1 1.8
2018-Feb-16 15:29N 53°38' W 000°11'0 0.4
2018-Feb-16 14:58N 53°38' W 000°12'0 0.0
2018-Feb-16 13:51N 53°38' W 000°12'0 0.0
2018-Feb-16 12:35N 53°38' W 000°12'0 0.0
2018-Feb-16 11:29N 53°38' W 000°12'0 0.0
2018-Feb-16 10:53N 53°38' W 000°12'0 0.0
2018-Feb-16 10:28N 53°38' W 000°12'0 0.0
2018-Feb-16 09:51N 53°38' W 000°12'0 0.0
2018-Feb-16 09:27N 53°38' W 000°12'0 0.0
2018-Feb-16 08:35N 53°38' W 000°12'0 0.0
2018-Feb-16 06:04N 53°38' W 000°12'0 0.0
2018-Feb-16 05:58N 53°38' W 000°12'0 0.0
2018-Feb-16 04:52N 53°38' W 000°12'0 0.0
2018-Feb-16 03:27N 53°38' W 000°12'0 0.0
2018-Feb-16 00:23N 53°38' W 000°12'0 0.6
2018-Feb-16 00:00N 53°38' W 000°11'0 0.4
2018-Feb-15 23:30N 53°38' W 000°11'0 0.5
2018-Feb-15 23:00N 53°38' W 000°11'2 3.3
2018-Feb-15 22:30N 53°38' W 000°08'4 8.1
2018-Feb-15 21:59N 53°36' W 000°02'4 6.0
2018-Feb-15 21:22N 53°34' E 000°03'1 0.5
2018-Feb-15 18:52N 53°33' E 000°05'0 0.0
2018-Feb-15 18:28N 53°33' E 000°05'0 0.0
2018-Feb-15 13:08N 53°33' E 000°05'0 0.0
2018-Feb-15 11:43N 53°33' E 000°05'0 0.0
2018-Feb-15 09:30N 53°33' E 000°05'0 0.0
2018-Feb-15 08:32N 53°33' E 000°05'0 0.0
2018-Feb-15 08:24N 53°33' E 000°05'0 0.1
2018-Feb-15 07:54N 53°33' E 000°05'  

Dump ship's entire track history